createdAt,value
2018-04-08T00:00:02.923Z,0
2018-04-08T00:01:12.701Z,0
2018-04-08T00:02:22.706Z,0
2018-04-08T00:03:32.200Z,0
2018-04-08T00:04:42.199Z,0
2018-04-08T00:05:51.953Z,0
2018-04-08T00:07:01.960Z,0
2018-04-08T00:08:11.988Z,0
2018-04-08T00:09:21.745Z,0
2018-04-08T00:10:31.500Z,0
2018-04-08T00:11:41.512Z,0
2018-04-08T00:12:51.536Z,0
2018-04-08T00:14:01.529Z,0
2018-04-08T00:15:11.573Z,0
2018-04-08T00:16:21.636Z,0
2018-04-08T00:17:31.387Z,0
2018-04-08T00:18:41.621Z,0
2018-04-08T00:19:51.425Z,0
2018-04-08T00:21:00.954Z,0
2018-04-08T00:22:10.989Z,0
2018-04-08T00:23:20.849Z,0
2018-04-08T00:24:30.866Z,0
2018-04-08T00:25:40.876Z,0
2018-04-08T00:26:50.878Z,0
2018-04-08T00:28:00.703Z,0
2018-04-08T00:29:10.758Z,0
2018-04-08T00:30:20.808Z,0
2018-04-08T00:31:30.564Z,0
2018-04-08T00:32:40.515Z,0
2018-04-08T00:33:50.078Z,0
2018-04-08T00:35:00.115Z,0
2018-04-08T00:36:10.127Z,0
2018-04-08T00:37:19.616Z,0
2018-04-08T00:38:29.374Z,0
2018-04-08T00:39:39.398Z,0
2018-04-08T00:40:49.414Z,0
2018-04-08T00:41:59.423Z,0
2018-04-08T00:43:09.687Z,0
2018-04-08T00:44:19.686Z,0
2018-04-08T00:45:29.193Z,0
2018-04-08T00:46:39.203Z,0
2018-04-08T00:47:49.227Z,0
2018-04-08T00:48:58.737Z,0
2018-04-08T00:50:08.775Z,0
2018-04-08T00:51:18.526Z,0
2018-04-08T00:52:28.518Z,0
2018-04-08T00:53:38.541Z,0
2018-04-08T00:54:48.290Z,0
2018-04-08T00:55:58.296Z,0
2018-04-08T00:57:08.143Z,0
2018-04-08T00:58:18.163Z,0
2018-04-08T00:59:27.931Z,0
2018-04-08T01:00:37.381Z,0
2018-04-08T01:01:47.384Z,0
2018-04-08T01:02:58.449Z,0
2018-04-08T01:04:07.927Z,0
2018-04-08T01:05:17.925Z,0
2018-04-08T01:06:27.690Z,0
2018-04-08T01:07:37.705Z,0
2018-04-08T01:08:47.712Z,0
2018-04-08T01:09:57.722Z,0
2018-04-08T01:11:07.235Z,0
2018-04-08T01:12:17.252Z,0
2018-04-08T01:13:27.293Z,0
2018-04-08T01:14:37.105Z,0
2018-04-08T01:15:46.855Z,0
2018-04-08T01:16:56.371Z,0
2018-04-08T01:18:06.378Z,0
2018-04-08T01:19:16.379Z,0
2018-04-08T01:20:26.180Z,0
2018-04-08T01:21:35.674Z,0
2018-04-08T01:22:45.432Z,0
2018-04-08T01:23:54.925Z,0
2018-04-08T01:25:04.418Z,0
2018-04-08T01:26:14.506Z,0
2018-04-08T01:27:24.520Z,0
2018-04-08T01:28:34.275Z,0
2018-04-08T01:29:44.280Z,0
2018-04-08T01:30:54.266Z,0
2018-04-08T01:32:04.049Z,0
2018-04-08T01:33:13.822Z,0
2018-04-08T01:34:23.878Z,0
2018-04-08T01:35:33.960Z,0
2018-04-08T01:36:44.038Z,0
2018-04-08T01:37:53.828Z,0
2018-04-08T01:39:03.894Z,0
2018-04-08T01:40:13.700Z,0
2018-04-08T01:41:23.238Z,0
2018-04-08T01:42:33.322Z,0
2018-04-08T01:43:42.915Z,0
2018-04-08T01:44:52.733Z,0
2018-04-08T01:46:02.544Z,0
2018-04-08T01:47:12.369Z,0
2018-04-08T01:48:21.924Z,0
2018-04-08T01:49:31.995Z,0
2018-04-08T01:50:41.524Z,0
2018-04-08T01:51:51.382Z,0
2018-04-08T01:53:01.445Z,0
2018-04-08T01:54:11.515Z,0
2018-04-08T01:55:21.639Z,0
2018-04-08T01:56:31.717Z,0
2018-04-08T01:57:41.791Z,0
2018-04-08T01:58:51.618Z,0
2018-04-08T02:00:05.235Z,0
2018-04-08T02:01:14.837Z,0
2018-04-08T02:02:25.358Z,0
2018-04-08T02:03:35.430Z,0
2018-04-08T02:04:45.217Z,0
2018-04-08T02:05:55.316Z,0
2018-04-08T02:07:05.447Z,0
2018-04-08T02:08:15.514Z,0
2018-04-08T02:09:25.594Z,0
2018-04-08T02:10:35.685Z,0
2018-04-08T02:11:45.484Z,0
2018-04-08T02:12:55.309Z,0
2018-04-08T02:14:05.378Z,0
2018-04-08T02:15:15.189Z,0
2018-04-08T02:16:25.257Z,0
2018-04-08T02:17:35.058Z,0
2018-04-08T02:18:44.929Z,0
2018-04-08T02:19:54.461Z,0
2018-04-08T02:21:04.271Z,0
2018-04-08T02:22:14.091Z,0
2018-04-08T02:23:23.920Z,0
2018-04-08T02:24:33.798Z,0
2018-04-08T02:25:43.318Z,0
2018-04-08T02:26:53.164Z,0
2018-04-08T02:28:03.254Z,0
2018-04-08T02:29:13.091Z,0
2018-04-08T02:30:22.898Z,0
2018-04-08T02:31:33.019Z,0
2018-04-08T02:32:42.837Z,0
2018-04-08T02:33:52.654Z,0
2018-04-08T02:35:02.466Z,0
2018-04-08T02:36:12.273Z,0
2018-04-08T02:37:22.086Z,0
2018-04-08T02:38:31.911Z,0
2018-04-08T02:39:42.007Z,0
2018-04-08T02:40:52.131Z,0
2018-04-08T02:42:02.219Z,0
2018-04-08T02:43:12.300Z,0
2018-04-08T02:44:22.106Z,0
2018-04-08T02:45:31.651Z,0
2018-04-08T02:46:41.767Z,0
2018-04-08T02:47:51.904Z,0
2018-04-08T02:49:01.720Z,0
2018-04-08T02:50:11.794Z,0
2018-04-08T02:51:21.868Z,0
2018-04-08T02:52:31.953Z,0
2018-04-08T02:53:42.096Z,0
2018-04-08T02:54:51.913Z,0
2018-04-08T02:56:01.721Z,0
2018-04-08T02:57:11.807Z,0
2018-04-08T02:58:21.895Z,0
2018-04-08T02:59:32.037Z,0
2018-04-08T03:00:42.107Z,0
2018-04-08T03:01:51.643Z,0
2018-04-08T03:33:46.868Z,0
2018-04-08T03:34:56.929Z,0
2018-04-08T03:36:07.001Z,0
2018-04-08T03:37:17.068Z,0
2018-04-08T03:38:26.880Z,0
2018-04-08T03:39:36.739Z,0
2018-04-08T03:40:46.546Z,0
2018-04-08T03:41:56.358Z,0
2018-04-08T03:43:06.162Z,0
2018-04-08T03:44:15.710Z,0
2018-04-08T03:45:25.516Z,0
2018-04-08T03:46:35.590Z,0
2018-04-08T03:47:45.672Z,0
2018-04-08T03:48:55.751Z,0
2018-04-08T03:50:05.034Z,0
2018-04-08T03:51:14.852Z,0
2018-04-08T03:52:24.664Z,0
2018-04-08T03:53:34.471Z,0
2018-04-08T03:54:44.283Z,0
2018-04-08T03:55:54.093Z,0
2018-04-08T03:57:04.344Z,0
2018-04-08T03:58:14.165Z,0
2018-04-08T03:59:23.441Z,0
2018-04-08T04:00:33.262Z,0
2018-04-08T04:01:43.086Z,0
2018-04-08T04:02:53.201Z,0
2018-04-08T04:04:03.010Z,0
2018-04-08T04:05:13.080Z,0
2018-04-08T04:06:23.161Z,0
2018-04-08T04:07:32.960Z,0
2018-04-08T04:08:43.070Z,0
2018-04-08T04:09:53.150Z,0
2018-04-08T04:11:03.238Z,0
2018-04-08T04:12:12.788Z,0
2018-04-08T04:13:22.063Z,0
2018-04-08T04:14:31.614Z,0
2018-04-08T04:15:41.455Z,0
2018-04-08T04:16:50.999Z,0
2018-04-08T04:18:00.532Z,0
2018-04-08T04:19:10.356Z,0
2018-04-08T04:20:20.156Z,0
2018-04-08T04:21:30.235Z,5
2018-04-08T04:22:40.301Z,5
2018-04-08T04:23:50.372Z,5
2018-04-08T04:25:00.174Z,5
2018-04-08T04:26:09.981Z,5
2018-04-08T04:27:19.779Z,5
2018-04-08T04:28:29.835Z,5
2018-04-08T04:29:39.910Z,5
2018-04-08T04:30:49.716Z,5
2018-04-08T04:31:59.839Z,5
2018-04-08T04:33:09.427Z,10
2018-04-08T04:34:19.242Z,10
2018-04-08T04:35:29.305Z,10
2018-04-08T04:36:39.116Z,5
2018-04-08T04:37:49.322Z,5
2018-04-08T04:38:58.852Z,10
2018-04-08T04:40:08.919Z,5
2018-04-08T04:41:18.975Z,5
2018-04-08T04:42:28.512Z,5
2018-04-08T04:43:38.356Z,10
2018-04-08T04:44:48.167Z,5
2018-04-08T04:45:58.231Z,5
2018-04-08T04:47:07.783Z,10
2018-04-08T04:48:17.888Z,5
2018-04-08T04:49:27.985Z,5
2018-04-08T04:50:37.795Z,5
2018-04-08T04:51:47.608Z,5
2018-04-08T04:52:57.682Z,5
2018-04-08T04:54:06.977Z,10
2018-04-08T04:55:17.049Z,5
2018-04-08T04:56:26.845Z,10
2018-04-08T04:57:36.119Z,10
2018-04-08T04:58:46.177Z,10
2018-04-08T04:59:55.722Z,10
2018-04-08T05:01:04.993Z,10
2018-04-08T05:02:14.268Z,10
2018-04-08T05:03:24.076Z,10
2018-04-08T05:04:34.144Z,10
2018-04-08T05:05:43.951Z,10
2018-04-08T05:06:54.022Z,15
2018-04-08T05:08:04.104Z,20
2018-04-08T05:09:14.175Z,20
2018-04-08T05:10:24.292Z,15
2018-04-08T05:11:34.104Z,20
2018-04-08T05:12:44.165Z,20
2018-04-08T05:13:54.346Z,20
2018-04-08T05:15:04.125Z,20
2018-04-08T05:16:13.932Z,25
2018-04-08T05:17:23.748Z,25
2018-04-08T05:18:33.635Z,25
2018-04-08T05:19:43.191Z,25
2018-04-08T05:20:52.992Z,25
2018-04-08T05:22:02.808Z,25
2018-04-08T05:23:13.039Z,25
2018-04-08T05:24:22.593Z,25
2018-04-08T05:25:32.129Z,30
2018-04-08T05:26:41.939Z,30
2018-04-08T05:27:51.751Z,30
2018-04-08T05:29:01.574Z,30
2018-04-08T05:30:11.167Z,35
2018-04-08T05:31:21.233Z,35
2018-04-08T05:32:31.039Z,35
2018-04-08T05:33:41.112Z,40
2018-04-08T05:34:50.915Z,35
2018-04-08T05:36:00.260Z,40
2018-04-08T05:37:10.062Z,40
2018-04-08T05:38:19.874Z,40
2018-04-08T05:39:29.420Z,40
2018-04-08T05:40:39.495Z,40
2018-04-08T05:41:49.312Z,35
2018-04-08T05:42:59.130Z,40
2018-04-08T05:44:08.669Z,35
2018-04-08T05:45:18.479Z,40
2018-04-08T05:46:28.550Z,50
2018-04-08T05:47:38.659Z,40
2018-04-08T05:48:47.937Z,45
2018-04-08T05:49:58.017Z,50
2018-04-08T05:51:07.829Z,60
2018-04-08T05:52:17.639Z,60
2018-04-08T05:53:27.246Z,65
2018-04-08T05:54:37.059Z,65
2018-04-08T05:55:46.869Z,65
2018-04-08T05:56:56.936Z,65
2018-04-08T05:58:07.193Z,65
2018-04-08T05:59:17.318Z,80
2018-04-08T06:00:26.601Z,70
2018-04-08T06:01:36.400Z,70
2018-04-08T06:02:45.676Z,70
2018-04-08T06:03:55.872Z,75
2018-04-08T06:05:05.746Z,70
2018-04-08T06:06:15.545Z,75
2018-04-08T06:07:24.840Z,80
2018-04-08T06:08:34.660Z,85
2018-04-08T06:09:44.727Z,85
2018-04-08T06:10:54.835Z,85
2018-04-08T06:12:04.667Z,95
2018-04-08T06:13:14.471Z,80
2018-04-08T06:14:24.557Z,90
2018-04-08T06:15:34.644Z,95
2018-04-08T06:16:44.503Z,85
2018-04-08T06:17:54.568Z,85
2018-04-08T06:19:03.849Z,90
2018-04-08T06:20:13.928Z,90
2018-04-08T06:21:23.734Z,100
2018-04-08T06:22:33.562Z,85
2018-04-08T06:23:43.368Z,100
2018-04-08T06:24:52.928Z,100
2018-04-08T06:26:02.805Z,105
2018-04-08T06:27:12.092Z,100
2018-04-08T06:28:22.186Z,95
2018-04-08T06:29:32.291Z,110
2018-04-08T06:30:42.136Z,100
2018-04-08T06:31:52.264Z,100
2018-04-08T06:33:02.337Z,115
2018-04-08T06:34:12.413Z,105
2018-04-08T06:35:22.488Z,105
2018-04-08T06:36:32.551Z,120
2018-04-08T06:37:42.365Z,115
2018-04-08T06:38:52.440Z,120
2018-04-08T06:40:01.758Z,125
2018-04-08T06:41:11.580Z,145
2018-04-08T06:42:21.662Z,160
2018-04-08T06:43:31.532Z,165
2018-04-08T06:44:41.370Z,175
2018-04-08T06:45:51.442Z,160
2018-04-08T06:47:01.228Z,175
2018-04-08T06:48:11.079Z,185
2018-04-08T06:49:20.907Z,190
2018-04-08T06:50:30.722Z,160
2018-04-08T06:51:40.571Z,190
2018-04-08T06:52:50.649Z,155
2018-04-08T06:54:00.212Z,165
2018-04-08T06:55:09.783Z,170
2018-04-08T06:56:19.852Z,180
2018-04-08T06:57:29.923Z,175
2018-04-08T06:58:39.740Z,205
2018-04-08T06:59:49.827Z,185
2018-04-08T07:00:59.914Z,195
2018-04-08T07:02:10.011Z,190
2018-04-08T07:03:20.148Z,185
2018-04-08T07:04:29.965Z,190
2018-04-08T07:05:39.792Z,205
2018-04-08T07:06:49.342Z,195
2018-04-08T07:07:59.171Z,180
2018-04-08T07:09:08.706Z,225
2018-04-08T07:10:18.779Z,200
2018-04-08T07:11:28.845Z,190
2018-04-08T07:12:38.426Z,215
2018-04-08T07:13:48.518Z,225
2018-04-08T07:14:58.619Z,190
2018-04-08T07:16:08.706Z,225
2018-04-08T07:17:18.811Z,225
2018-04-08T07:18:29.385Z,210
2018-04-08T07:19:39.247Z,225
2018-04-08T07:20:49.334Z,215
2018-04-08T07:21:59.141Z,205
2018-04-08T07:23:08.676Z,205
2018-04-08T07:24:18.221Z,205
2018-04-08T07:25:28.025Z,180
2018-04-08T07:26:37.628Z,220
2018-04-08T07:27:47.719Z,175
2018-04-08T07:28:57.548Z,200
2018-04-08T07:30:07.111Z,190
2018-04-08T07:31:16.958Z,200
2018-04-08T07:32:27.091Z,210
2018-04-08T07:33:37.190Z,180
2018-04-08T07:34:47.015Z,185
2018-04-08T07:35:56.572Z,215
2018-04-08T07:37:06.390Z,200
2018-04-08T07:38:16.563Z,195
2018-04-08T07:39:26.662Z,215
2018-04-08T07:40:36.474Z,185
2018-04-08T07:41:46.570Z,210
2018-04-08T07:42:56.398Z,220
2018-04-08T07:44:06.211Z,220
2018-04-08T07:45:16.281Z,175
2018-04-08T07:46:26.433Z,215
2018-04-08T07:47:36.251Z,215
2018-04-08T07:48:46.351Z,190
2018-04-08T07:49:56.574Z,180
2018-04-08T07:51:06.662Z,220
2018-04-08T07:52:16.476Z,175
2018-04-08T07:53:26.594Z,200
2018-04-08T07:54:36.690Z,215
2018-04-08T07:55:46.511Z,200
2018-04-08T07:56:56.635Z,210
2018-04-08T07:58:06.439Z,205
2018-04-08T07:59:16.719Z,175
2018-04-08T08:00:26.804Z,235
2018-04-08T08:01:36.885Z,210
2018-04-08T08:02:46.997Z,205
2018-04-08T08:03:56.819Z,205
2018-04-08T08:05:06.906Z,205
2018-04-08T08:06:16.474Z,205
2018-04-08T08:07:26.565Z,205
2018-04-08T08:08:36.644Z,205
2018-04-08T08:09:46.728Z,205
2018-04-08T08:10:56.844Z,210
2018-04-08T08:12:06.931Z,205
2018-04-08T08:13:17.014Z,205
2018-04-08T08:14:26.834Z,195
2018-04-08T08:15:36.982Z,225
2018-04-08T08:16:47.069Z,180
2018-04-08T08:17:57.150Z,205
2018-04-08T08:19:07.287Z,220
2018-04-08T08:20:17.361Z,225
2018-04-08T08:21:27.440Z,225
2018-04-08T08:22:37.586Z,225
2018-04-08T08:23:47.828Z,210
2018-04-08T08:24:57.928Z,225
2018-04-08T08:26:07.484Z,220
2018-04-08T08:27:17.591Z,215
2018-04-08T08:28:27.681Z,220
2018-04-08T08:29:37.511Z,225
2018-04-08T08:30:47.673Z,220
2018-04-08T08:31:57.849Z,225
2018-04-08T08:33:07.406Z,215
2018-04-08T08:34:17.496Z,215
2018-04-08T08:35:27.603Z,220
2018-04-08T08:36:37.193Z,200
2018-04-08T08:37:47.043Z,230
2018-04-08T08:38:57.132Z,215
2018-04-08T08:40:07.241Z,210
2018-04-08T08:41:17.332Z,205
2018-04-08T08:42:27.188Z,205
2018-04-08T08:43:37.401Z,210
2018-04-08T08:44:47.687Z,210
2018-04-08T08:45:57.810Z,205
2018-04-08T08:47:07.664Z,205
2018-04-08T08:48:17.865Z,205
2018-04-08T08:49:27.968Z,205
2018-04-08T08:50:37.808Z,210
2018-04-08T08:51:47.928Z,205
2018-04-08T08:52:57.784Z,205
2018-04-08T08:54:07.946Z,205
2018-04-08T08:55:17.509Z,210
2018-04-08T08:56:27.489Z,205
2018-04-08T08:57:37.352Z,210
2018-04-08T08:58:47.204Z,210
2018-04-08T08:59:57.305Z,210
2018-04-08T09:01:07.148Z,215
2018-04-08T09:02:17.253Z,210
2018-04-08T09:03:27.058Z,210
2018-04-08T09:04:37.144Z,215
2018-04-08T09:05:47.010Z,210
2018-04-08T09:06:57.144Z,215
2018-04-08T09:08:07.444Z,205
2018-04-08T09:09:17.535Z,210
2018-04-08T09:10:27.656Z,210
2018-04-08T09:11:37.274Z,210
2018-04-08T09:12:47.368Z,215
2018-04-08T09:13:57.181Z,215
2018-04-08T09:15:07.255Z,215
2018-04-08T09:16:17.097Z,210
2018-04-08T09:17:27.293Z,225
2018-04-08T09:18:37.408Z,220
2018-04-08T09:19:47.251Z,215
2018-04-08T09:20:57.364Z,220
2018-04-08T09:22:06.937Z,215
2018-04-08T09:23:16.789Z,220
2018-04-08T09:24:26.917Z,215
2018-04-08T09:25:37.037Z,215
2018-04-08T09:26:47.012Z,215
2018-04-08T09:27:56.843Z,220
2018-04-08T09:29:06.754Z,215
2018-04-08T09:30:16.849Z,215
2018-04-08T09:31:26.960Z,225
2018-04-08T09:32:36.817Z,220
2018-04-08T09:33:46.926Z,220
2018-04-08T09:34:57.060Z,225
2018-04-08T09:36:07.187Z,225
2018-04-08T09:37:17.288Z,230
2018-04-08T09:38:26.874Z,220
2018-04-08T09:39:36.983Z,225
2018-04-08T09:40:47.085Z,230
2018-04-08T09:41:56.963Z,220
2018-04-08T09:43:07.071Z,220
2018-04-08T09:44:17.203Z,220
2018-04-08T09:45:27.047Z,220
2018-04-08T09:46:36.638Z,215
2018-04-08T09:47:46.762Z,220
2018-04-08T09:48:56.610Z,215
2018-04-08T09:50:06.707Z,215
2018-04-08T09:51:16.540Z,220
2018-04-08T09:52:26.123Z,215
2018-04-08T09:53:35.970Z,220
2018-04-08T09:54:46.055Z,220
2018-04-08T09:55:55.931Z,215
2018-04-08T09:57:06.243Z,220
2018-04-08T09:58:16.337Z,215
2018-04-08T09:59:26.344Z,215
2018-04-08T10:00:35.662Z,220
2018-04-08T10:01:45.884Z,220
2018-04-08T10:02:55.783Z,220
2018-04-08T10:04:05.782Z,220
2018-04-08T10:05:16.239Z,220
2018-04-08T10:06:26.400Z,215
2018-04-08T10:07:36.427Z,215
2018-04-08T10:08:46.975Z,225
2018-04-08T10:09:56.871Z,225
2018-04-08T10:11:07.047Z,220
2018-04-08T10:12:17.285Z,225
2018-04-08T10:13:27.246Z,220
2018-04-08T10:14:36.902Z,220
2018-04-08T10:15:46.836Z,220
2018-04-08T10:16:57.578Z,220
2018-04-08T10:18:09.366Z,225
2018-04-08T10:19:20.498Z,220
2018-04-08T10:20:31.393Z,220
2018-04-08T10:21:42.846Z,220
2018-04-08T10:22:54.212Z,220
2018-04-08T10:24:05.333Z,220
2018-04-08T10:25:16.453Z,225
2018-04-08T10:26:27.566Z,220
2018-04-08T10:27:38.698Z,225
2018-04-08T10:28:50.022Z,225
2018-04-08T10:30:00.416Z,220
2018-04-08T10:31:10.830Z,225
2018-04-08T10:32:21.225Z,225
2018-04-08T10:33:32.142Z,225
2018-04-08T10:34:42.699Z,225
2018-04-08T10:35:52.551Z,225
2018-04-08T10:37:02.668Z,220
2018-04-08T10:38:12.513Z,225
2018-04-08T10:39:22.666Z,225
2018-04-08T10:40:32.565Z,225
2018-04-08T10:41:42.157Z,225
2018-04-08T10:42:52.005Z,225
2018-04-08T10:46:42.616Z,225
2018-04-08T10:47:52.782Z,225
2018-04-08T10:49:02.645Z,225
2018-04-08T10:50:12.769Z,230
2018-04-08T10:51:22.866Z,230
2018-04-08T10:52:32.977Z,230
2018-04-08T10:53:43.096Z,230
2018-04-08T10:54:53.218Z,230
2018-04-08T10:56:03.326Z,230
2018-04-08T10:57:13.407Z,230
2018-04-08T10:58:23.619Z,225
2018-04-08T10:59:33.714Z,230
2018-04-08T11:00:43.827Z,225
2018-04-08T11:01:53.929Z,230
2018-04-08T11:03:04.334Z,230
2018-04-08T11:04:14.428Z,230
2018-04-08T11:05:24.529Z,230
2018-04-08T11:06:34.638Z,230
2018-04-08T11:07:44.460Z,230
2018-04-08T11:08:54.568Z,230
2018-04-08T11:10:04.719Z,225
2018-04-08T11:11:14.551Z,230
2018-04-08T11:12:24.657Z,230
2018-04-08T11:13:34.775Z,230
2018-04-08T11:14:44.875Z,235
2018-04-08T11:15:55.021Z,230
2018-04-08T11:17:05.451Z,230
2018-04-08T11:18:15.562Z,230
2018-04-08T11:19:25.378Z,225
2018-04-08T11:20:35.490Z,225
2018-04-08T11:21:45.593Z,225
2018-04-08T11:22:55.708Z,230
2018-04-08T11:24:05.559Z,225
2018-04-08T11:25:15.403Z,235
2018-04-08T11:26:25.481Z,230
2018-04-08T11:27:35.639Z,235
2018-04-08T11:28:45.744Z,235
2018-04-08T11:29:56.210Z,230
2018-04-08T11:31:06.325Z,235
2018-04-08T11:32:16.434Z,240
2018-04-08T11:33:26.007Z,240
2018-04-08T11:34:36.290Z,240
2018-04-08T11:35:46.376Z,245
2018-04-08T11:36:55.924Z,245
2018-04-08T11:38:05.755Z,245
2018-04-08T11:39:15.915Z,250
2018-04-08T11:40:26.028Z,250
2018-04-08T11:41:35.067Z,255
2018-04-08T11:42:44.896Z,260
2018-04-08T11:43:54.993Z,255
2018-04-08T11:45:05.217Z,255
2018-04-08T11:46:15.311Z,255
2018-04-08T11:47:25.320Z,260
2018-04-08T11:48:35.176Z,265
2018-04-08T11:49:44.748Z,260
2018-04-08T11:50:54.850Z,260
2018-04-08T11:52:04.452Z,260
2018-04-08T11:53:14.552Z,260
2018-04-08T11:54:24.123Z,260
2018-04-08T11:55:33.966Z,255
2018-04-08T11:56:43.869Z,260
2018-04-08T11:57:53.700Z,250
2018-04-08T11:59:03.793Z,255
2018-04-08T12:00:13.632Z,250
2018-04-08T12:01:23.723Z,250
2018-04-08T12:02:33.848Z,245
2018-04-08T12:03:43.443Z,245
2018-04-08T12:04:53.556Z,240
2018-04-08T12:06:03.120Z,240
2018-04-08T12:07:13.233Z,245
2018-04-08T12:08:23.388Z,240
2018-04-08T12:09:33.497Z,240
2018-04-08T12:10:43.329Z,245
2018-04-08T12:11:53.940Z,245
2018-04-08T12:13:04.032Z,245
2018-04-08T12:14:14.197Z,245
2018-04-08T12:15:24.297Z,245
2018-04-08T12:16:34.672Z,245
2018-04-08T12:17:44.771Z,245
2018-04-08T12:18:54.867Z,240
2018-04-08T12:20:05.002Z,240
2018-04-08T12:21:15.558Z,245
2018-04-08T12:22:25.654Z,240
2018-04-08T12:23:35.984Z,240
2018-04-08T12:24:45.835Z,240
2018-04-08T12:25:56.004Z,240
2018-04-08T12:27:05.873Z,240
2018-04-08T12:28:15.693Z,235
2018-04-08T12:29:25.244Z,235
2018-04-08T12:30:35.343Z,235
2018-04-08T12:31:45.251Z,235
2018-04-08T12:32:55.338Z,235
2018-04-08T12:34:04.924Z,240
2018-04-08T12:35:14.758Z,235
2018-04-08T12:36:24.856Z,230
2018-04-08T12:37:34.949Z,235
2018-04-08T12:38:44.803Z,230
2018-04-08T12:39:54.901Z,230
2018-04-08T12:41:05.013Z,235
2018-04-08T12:42:15.136Z,230
2018-04-08T12:43:25.277Z,230
2018-04-08T12:44:35.176Z,225
2018-04-08T12:45:44.993Z,225
2018-04-08T12:46:54.840Z,225
2018-04-08T12:48:04.655Z,225
2018-04-08T12:49:14.737Z,225
2018-04-08T12:50:24.312Z,225
2018-04-08T12:51:33.878Z,225
2018-04-08T12:52:43.448Z,225
2018-04-08T12:53:53.575Z,225
2018-04-08T12:55:03.978Z,220
2018-04-08T12:56:13.813Z,220
2018-04-08T12:57:24.021Z,220
2018-04-08T12:58:34.161Z,220
2018-04-08T12:59:44.279Z,220
2018-04-08T13:00:54.396Z,220
2018-04-08T13:02:04.241Z,220
2018-04-08T13:03:14.082Z,220
2018-04-08T13:04:23.929Z,215
2018-04-08T13:05:33.755Z,215
2018-04-08T13:06:43.930Z,215
2018-04-08T13:07:54.105Z,215
2018-04-08T13:09:03.955Z,215
2018-04-08T13:10:14.054Z,215
2018-04-08T13:11:24.165Z,215
2018-04-08T13:12:33.722Z,215
2018-04-08T13:13:43.295Z,215
2018-04-08T13:14:53.668Z,210
2018-04-08T13:16:03.795Z,215
2018-04-08T13:17:13.897Z,210
2018-04-08T13:18:24.219Z,210
2018-04-08T13:19:34.076Z,210
2018-04-08T13:20:44.176Z,210
2018-04-08T13:21:54.289Z,205
2018-04-08T13:23:03.860Z,205
2018-04-08T13:24:14.023Z,205
2018-04-08T13:25:24.160Z,205
2018-04-08T13:26:34.282Z,205
2018-04-08T13:27:44.395Z,205
2018-04-08T13:28:54.515Z,205
2018-04-08T13:30:04.583Z,205
2018-04-08T13:31:14.169Z,200
2018-04-08T13:32:24.273Z,200
2018-04-08T13:33:34.375Z,200
2018-04-08T13:34:44.482Z,200
2018-04-08T13:35:54.603Z,200
2018-04-08T13:37:04.441Z,200
2018-04-08T13:38:14.015Z,200
2018-04-08T13:39:23.841Z,200
2018-04-08T13:40:33.656Z,200
2018-04-08T13:41:43.757Z,200
2018-04-08T13:42:53.863Z,200
2018-04-08T13:44:03.715Z,200
2018-04-08T13:45:13.852Z,200
2018-04-08T13:46:23.974Z,200
2018-04-08T13:47:34.069Z,200
2018-04-08T13:48:44.144Z,200
2018-04-08T13:49:54.255Z,200
2018-04-08T13:51:04.084Z,200
2018-04-08T13:52:13.651Z,200
2018-04-08T13:53:23.512Z,200
2018-04-08T13:54:33.429Z,195
2018-04-08T13:55:43.268Z,195
2018-04-08T13:56:53.368Z,195
2018-04-08T13:58:03.220Z,195
2018-04-08T13:59:13.135Z,195
2018-04-08T14:00:23.267Z,195
2018-04-08T14:01:33.586Z,195
2018-04-08T14:02:43.421Z,190
2018-04-08T14:03:53.543Z,195
2018-04-08T14:05:03.655Z,190
2018-04-08T14:06:13.494Z,190
2018-04-08T14:07:23.610Z,190
2018-04-08T14:08:33.710Z,190
2018-04-08T14:09:43.529Z,190
2018-04-08T14:10:53.670Z,185
2018-04-08T14:12:03.788Z,185
2018-04-08T14:13:13.611Z,185
2018-04-08T14:14:23.607Z,185
2018-04-08T14:15:33.707Z,180
2018-04-08T14:16:43.815Z,180
2018-04-08T14:17:53.905Z,180
2018-04-08T14:19:04.232Z,180
2018-04-08T14:20:14.086Z,180
2018-04-08T14:21:24.192Z,180
2018-04-08T14:22:33.531Z,180
2018-04-08T14:23:43.606Z,180
2018-04-08T14:24:53.486Z,175
2018-04-08T14:26:03.584Z,175
2018-04-08T14:27:13.425Z,175
2018-04-08T14:28:23.731Z,175
2018-04-08T14:29:33.824Z,175
2018-04-08T14:30:43.446Z,175
2018-04-08T14:31:53.268Z,170
2018-04-08T14:33:03.366Z,170
2018-04-08T14:34:13.528Z,170
2018-04-08T14:35:23.638Z,170
2018-04-08T14:36:33.769Z,170
2018-04-08T14:37:44.123Z,170
2018-04-08T14:38:54.226Z,165
2018-04-08T14:40:04.100Z,165
2018-04-08T14:41:14.212Z,165
2018-04-08T14:42:24.047Z,165
2018-04-08T14:43:33.881Z,165
2018-04-08T14:44:43.462Z,160
2018-04-08T14:45:53.023Z,160
2018-04-08T14:47:02.889Z,160
2018-04-08T14:48:12.753Z,160
2018-04-08T14:49:22.588Z,155
2018-04-08T14:50:32.424Z,155
2018-04-08T14:51:42.521Z,155
2018-04-08T14:52:52.615Z,155
2018-04-08T14:54:02.475Z,155
2018-04-08T14:55:13.076Z,155
2018-04-08T14:56:22.904Z,150
2018-04-08T14:57:33.169Z,150
2018-04-08T14:58:43.298Z,150
2018-04-08T14:59:53.473Z,150
2018-04-08T15:01:02.776Z,150
2018-04-08T15:02:12.645Z,150
2018-04-08T15:03:22.536Z,150
2018-04-08T15:04:32.368Z,150
2018-04-08T15:05:42.609Z,150
2018-04-08T15:06:52.582Z,145
2018-04-08T15:08:02.728Z,145
2018-04-08T15:09:12.619Z,145
2018-04-08T15:10:22.485Z,145
2018-04-08T15:11:32.623Z,140
2018-04-08T15:12:42.747Z,140
2018-04-08T15:13:52.948Z,140
2018-04-08T15:15:03.039Z,140
2018-04-08T15:16:13.157Z,140
2018-04-08T15:17:23.270Z,140
2018-04-08T15:18:32.564Z,135
2018-04-08T15:19:42.411Z,135
2018-04-08T15:20:51.995Z,135
2018-04-08T15:22:02.078Z,135
2018-04-08T15:23:11.366Z,135
2018-04-08T15:24:21.236Z,135
2018-04-08T15:25:31.362Z,130
2018-04-08T15:26:41.493Z,130
2018-04-08T15:27:51.591Z,130
2018-04-08T15:29:01.709Z,130
2018-04-08T15:30:11.808Z,130
2018-04-08T15:31:21.671Z,125
2018-04-08T15:32:31.836Z,125
2018-04-08T15:33:41.661Z,125
2018-04-08T15:34:51.476Z,125
2018-04-08T15:36:01.566Z,120
2018-04-08T15:37:11.783Z,120
2018-04-08T15:38:22.195Z,120
2018-04-08T15:39:32.324Z,120
2018-04-08T15:40:42.423Z,120
2018-04-08T15:41:52.261Z,125
2018-04-08T15:43:02.414Z,120
2018-04-08T15:44:12.501Z,115
2018-04-08T15:45:22.641Z,115
2018-04-08T15:46:32.771Z,115
2018-04-08T15:47:42.884Z,110
2018-04-08T15:48:52.989Z,110
2018-04-08T15:50:03.089Z,110
2018-04-08T15:51:13.224Z,110
2018-04-08T15:52:23.083Z,105
2018-04-08T15:53:33.173Z,105
2018-04-08T15:54:43.261Z,105
2018-04-08T15:55:53.403Z,100
2018-04-08T15:57:03.496Z,100
2018-04-08T15:58:13.709Z,100
2018-04-08T15:59:23.847Z,100
2018-04-08T16:00:33.941Z,100
2018-04-08T16:01:43.522Z,100
2018-04-08T16:02:53.758Z,100
2018-04-08T16:04:03.692Z,100
2018-04-08T16:05:13.822Z,100
2018-04-08T16:06:23.953Z,95
2018-04-08T16:07:33.813Z,95
2018-04-08T16:08:43.912Z,95
2018-04-08T16:09:53.783Z,90
2018-04-08T16:11:03.350Z,90
2018-04-08T16:12:13.500Z,90
2018-04-08T16:13:23.613Z,90
2018-04-08T16:14:33.702Z,85
2018-04-08T16:15:43.555Z,85
2018-04-08T16:16:53.676Z,85
2018-04-08T16:18:03.249Z,80
2018-04-08T16:19:12.868Z,80
2018-04-08T16:20:23.312Z,80
2018-04-08T16:21:32.628Z,80
2018-04-08T16:22:41.969Z,75
2018-04-08T16:23:51.827Z,75
2018-04-08T16:25:01.979Z,75
2018-04-08T16:26:11.827Z,75
2018-04-08T16:27:21.682Z,70
2018-04-08T16:28:31.555Z,70
2018-04-08T16:29:41.394Z,70
2018-04-08T16:30:51.240Z,65
2018-04-08T16:32:00.789Z,65
2018-04-08T16:33:10.377Z,65
2018-04-08T16:34:20.200Z,65
2018-04-08T16:35:30.026Z,60
2018-04-08T16:36:39.915Z,60
2018-04-08T16:37:49.243Z,60
2018-04-08T16:38:59.075Z,55
2018-04-08T16:40:09.180Z,55
2018-04-08T16:41:19.018Z,55
2018-04-08T16:42:29.142Z,50
2018-04-08T16:43:38.968Z,50
2018-04-08T16:44:48.802Z,50
2018-04-08T16:45:58.898Z,50
2018-04-08T16:47:09.006Z,50
2018-04-08T16:48:19.117Z,50
2018-04-08T16:49:29.228Z,50
2018-04-08T16:50:39.071Z,45
2018-04-08T16:51:48.915Z,45
2018-04-08T16:52:59.022Z,45
2018-04-08T16:54:09.146Z,45
2018-04-08T16:55:18.999Z,40
2018-04-08T16:56:28.832Z,40
2018-04-08T16:57:38.938Z,40
2018-04-08T16:58:48.555Z,35